Time;durP1;ratioP1;P1;durP2;ratioP2;P2;SDS_P1;SDS_P2;PMS_P1;PMS_P2;Temp;Humidity;BMP_temperature;BMP_pressure;BME280_temperature;BME280_humidity;BME280_pressure;Samples;Min_cycle;Max_cycle;Signal;HPM_P1;HPM_P2
2022/11/03 00:01:35;;;;;;;18.43;7.00;;;;;;;7.37;100.00;100413.28;4190676;28;20306;-77
2022/11/03 00:04:05;;;;;;;19.80;6.87;;;;;;;7.46;100.00;100404.59;4203664;28;20359;-76
2022/11/03 00:06:32;;;;;;;19.43;7.13;;;;;;;7.31;100.00;100400.59;4170111;28;25374;-79
2022/11/03 00:09:01;;;;;;;22.70;7.53;;;;;;;7.27;100.00;100394.69;4166555;28;20374;-77
2022/11/03 00:11:28;;;;;;;24.13;7.37;;;;;;;7.17;100.00;100404.34;4171980;28;21934;-77
2022/11/03 00:13:55;;;;;;;28.70;7.63;;;;;;;7.08;100.00;100408.56;4217690;28;20649;-77
2022/11/03 00:16:22;;;;;;;18.57;7.37;;;;;;;6.98;100.00;100394.41;4193742;28;21667;-78
2022/11/03 00:18:50;;;;;;;23.13;7.60;;;;;;;6.97;100.00;100400.63;4201968;28;20257;-77
2022/11/03 00:21:17;;;;;;;20.87;6.97;;;;;;;6.98;100.00;100407.63;4178962;28;20239;-77
2022/11/03 00:23:43;;;;;;;20.33;7.00;;;;;;;6.95;100.00;100405.22;4179970;28;21730;-77
2022/11/03 00:26:17;;;;;;;20.80;6.93;;;;;;;6.90;100.00;100410.03;4178910;28;20237;-77
2022/11/03 00:28:45;;;;;;;24.50;6.87;;;;;;;6.90;100.00;100410.88;4201590;28;21082;-78
2022/11/03 00:31:14;;;;;;;13.77;6.03;;;;;;;6.86;100.00;100408.59;4181787;28;23765;-78
2022/11/03 00:33:41;;;;;;;22.63;7.00;;;;;;;6.71;100.00;100408.00;4178770;28;20238;-78
2022/11/03 00:36:14;;;;;;;23.20;6.80;;;;;;;6.63;100.00;100408.59;4206493;28;20329;-79
2022/11/03 00:38:42;;;;;;;21.93;7.03;;;;;;;6.65;100.00;100414.63;4176543;28;26442;-80
2022/11/03 00:41:09;;;;;;;19.73;6.90;;;;;;;6.56;100.00;100417.97;4165169;28;20453;-80
2022/11/03 00:43:36;;;;;;;23.40;7.27;;;;;;;6.59;100.00;100411.63;4186395;28;20453;-76
2022/11/03 00:46:06;;;;;;;21.63;6.87;;;;;;;6.52;100.00;100413.88;4162096;28;20237;-78
2022/11/03 00:48:34;;;;;;;14.93;5.83;;;;;;;6.48;100.00;100409.78;4195547;28;20301;-79
2022/11/03 00:51:07;;;;;;;17.27;6.43;;;;;;;6.46;100.00;100417.00;4184661;28;22203;-79
2022/11/03 00:53:39;;;;;;;18.90;6.23;;;;;;;6.40;100.00;100415.69;4195635;28;20624;-77
2022/11/03 00:56:08;;;;;;;15.33;6.90;;;;;;;6.37;100.00;100417.72;4195747;28;20226;-78
2022/11/03 00:58:35;;;;;;;14.63;6.00;;;;;;;6.39;100.00;100415.78;4200888;28;20246;-76
2022/11/03 01:01:04;;;;;;;20.77;6.60;;;;;;;6.26;100.00;100418.56;4200117;28;20420;-79
2022/11/03 01:03:32;;;;;;;17.43;6.37;;;;;;;6.27;100.00;100423.69;4201904;28;20317;-78
2022/11/03 01:08:45;;;;;;;13.00;6.30;;;;;;;6.24;100.00;100429.22;4224517;28;20371;-79
2022/11/03 01:14:00;;;;;;;16.67;5.77;;;;;;;6.18;100.00;100431.50;4206771;28;20411;-77
2022/11/03 01:16:28;;;;;;;23.27;6.53;;;;;;;6.22;100.00;100431.13;4208042;28;20548;-80
2022/11/03 01:18:54;;;;;;;18.63;5.80;;;;;;;6.21;100.00;100432.13;4199272;28;20239;-81
2022/11/03 01:21:21;;;;;;;15.03;5.53;;;;;;;6.19;100.00;100436.66;4187204;28;21300;-77
2022/11/03 01:23:48;;;;;;;15.63;5.60;;;;;;;6.12;100.00;100433.66;4193002;28;20286;-78
2022/11/03 01:26:14;;;;;;;15.23;5.50;;;;;;;6.21;100.00;100431.28;4200241;28;20588;-76
2022/11/03 01:28:45;;;;;;;13.00;5.20;;;;;;;6.11;100.00;100434.63;4187127;28;20300;-80
2022/11/03 01:31:17;;;;;;;16.50;4.70;;;;;;;6.07;100.00;100437.59;4185593;28;20347;-82
2022/11/03 01:33:46;;;;;;;16.53;5.13;;;;;;;6.04;100.00;100433.41;4178963;28;20243;-77
2022/11/03 01:36:14;;;;;;;16.20;5.47;;;;;;;5.97;100.00;100436.59;4199155;28;20235;-77
2022/11/03 01:38:41;;;;;;;18.87;5.00;;;;;;;6.03;100.00;100444.06;4194535;28;20297;-76
2022/11/03 01:41:10;;;;;;;16.77;5.70;;;;;;;5.96;100.00;100438.41;4184608;28;20250;-79
2022/11/03 01:43:38;;;;;;;13.30;4.90;;;;;;;5.93;100.00;100436.81;4186814;28;20340;-79
2022/11/03 01:46:25;;;;;;;23.57;4.97;;;;;;;5.92;100.00;100435.13;4181685;28;20243;-75
2022/11/03 01:49:06;;;;;;;18.63;5.00;;;;;;;5.86;100.00;100440.03;4192193;28;20241;-77
2022/11/03 01:51:33;;;;;;;12.27;4.90;;;;;;;5.87;100.00;100441.69;4210093;28;22896;-75
2022/11/03 01:54:04;;;;;;;16.73;4.90;;;;;;;5.86;100.00;100435.59;4195056;28;20238;-77
2022/11/03 01:56:33;;;;;;;12.30;4.73;;;;;;;5.83;100.00;100438.47;4179841;28;20408;-77
2022/11/03 01:59:00;;;;;;;19.83;5.17;;;;;;;5.79;100.00;100433.53;4199963;28;21943;-79
2022/11/03 02:01:27;;;;;;;17.30;5.20;;;;;;;5.77;100.00;100435.44;4194243;28;22498;-79
2022/11/03 02:03:59;;;;;;;16.60;4.90;;;;;;;5.81;100.00;100435.09;4166933;28;21133;-79
2022/11/03 02:06:26;;;;;;;23.67;5.33;;;;;;;5.87;100.00;100428.50;4168584;28;20416;-83
2022/11/03 02:09:04;;;;;;;13.60;5.53;;;;;;;5.86;100.00;100430.31;4177482;28;23692;-78
2022/11/03 02:14:19;;;;;;;15.77;5.73;;;;;;;5.68;100.00;100442.22;4178828;28;20247;-76
2022/11/03 02:16:52;;;;;;;18.40;5.37;;;;;;;5.68;100.00;100442.22;4173027;28;23789;-76
2022/11/03 02:19:33;;;;;;;25.53;6.40;;;;;;;5.61;100.00;100438.34;4178103;28;20236;-80
2022/11/03 02:22:29;;;;;;;17.03;6.43;;;;;;;5.62;100.00;100442.66;4188615;28;20349;-75
2022/11/03 02:25:06;;;;;;;15.37;6.20;;;;;;;5.46;100.00;100438.53;4189911;28;20319;-79
2022/11/03 02:27:33;;;;;;;22.97;6.80;;;;;;;5.40;100.00;100438.13;4182002;28;20325;-75
2022/11/03 02:30:00;;;;;;;18.47;7.03;;;;;;;5.39;100.00;100439.94;4185664;28;20302;-79
2022/11/03 02:32:41;;;;;;;24.37;7.60;;;;;;;5.37;100.00;100444.47;4175673;28;20313;-77
2022/11/03 02:35:23;;;;;;;19.80;7.03;;;;;;;5.26;100.00;100436.50;4182431;28;20278;-77
2022/11/03 02:37:54;;;;;;;23.70;7.80;;;;;;;5.29;100.00;100436.25;4182515;28;20234;-75
2022/11/03 02:40:33;;;;;;;20.50;7.60;;;;;;;5.25;100.00;100434.81;4180695;28;20413;-75
2022/11/03 02:43:01;;;;;;;25.60;8.30;;;;;;;5.27;100.00;100439.03;4167131;28;20236;-75
2022/11/03 02:45:27;;;;;;;26.13;8.80;;;;;;;5.19;100.00;100451.91;4174642;28;21156;-76
2022/11/03 02:47:57;;;;;;;22.90;8.90;;;;;;;5.19;100.00;100445.81;4172836;28;20642;-77
2022/11/03 02:50:28;;;;;;;30.27;9.80;;;;;;;5.17;100.00;100445.91;4166063;28;20429;-74
2022/11/03 02:52:55;;;;;;;31.43;9.20;;;;;;;5.20;100.00;100448.34;4189874;28;20270;-78
2022/11/03 02:55:40;;;;;;;25.63;9.43;;;;;;;5.21;100.00;100444.72;4173622;28;20360;-78
2022/11/03 02:58:12;;;;;;;25.40;9.87;;;;;;;5.22;100.00;100450.84;4182142;28;20387;-76
2022/11/03 03:00:53;;;;;;;25.37;10.73;;;;;;;5.19;100.00;100456.34;4170270;28;20449;-76
2022/11/03 03:03:28;;;;;;;29.40;11.97;;;;;;;5.18;100.00;100449.41;4195067;28;20435;-79
2022/11/03 03:06:02;;;;;;;25.67;11.20;;;;;;;5.11;100.00;100451.63;4170580;28;22218;-75
2022/11/03 03:08:29;;;;;;;29.63;12.07;;;;;;;5.09;100.00;100453.53;4171882;28;20240;-75
2022/11/03 03:10:59;;;;;;;26.40;11.80;;;;;;;5.06;100.00;100451.13;4180347;28;20247;-75
2022/11/03 03:13:26;;;;;;;29.83;13.03;;;;;;;5.08;100.00;100454.50;4176607;28;20290;-80
2022/11/03 03:16:04;;;;;;;29.20;12.90;;;;;;;5.08;100.00;100459.78;4167932;28;20234;-76
2022/11/03 03:18:47;;;;;;;35.13;12.70;;;;;;;5.01;100.00;100459.38;4190669;28;20313;-78
2022/11/03 03:21:20;;;;;;;29.07;12.53;;;;;;;4.97;100.00;100462.31;4172497;28;20258;-76
2022/11/03 03:23:50;;;;;;;33.80;13.27;;;;;;;5.00;100.00;100462.94;4185700;28;22317;-75
2022/11/03 03:26:22;;;;;;;36.33;13.47;;;;;;;5.03;100.00;100457.47;4173240;28;20413;-77
2022/11/03 03:28:53;;;;;;;29.30;12.63;;;;;;;5.01;100.00;100464.63;4171344;28;21780;-75
2022/11/03 03:31:21;;;;;;;32.93;12.77;;;;;;;4.97;100.00;100460.53;4163078;28;20231;-75
2022/11/03 03:33:49;;;;;;;31.30;13.30;;;;;;;5.04;100.00;100458.28;4175850;28;20611;-77
2022/11/03 03:36:23;;;;;;;41.73;14.07;;;;;;;4.99;100.00;100465.69;4178960;28;20258;-74
2022/11/03 03:38:56;;;;;;;37.37;13.97;;;;;;;5.01;100.00;100467.28;4186068;28;20306;-75
2022/11/03 03:41:23;;;;;;;36.07;12.63;;;;;;;5.01;100.00;100474.31;4158235;28;21205;-74
2022/11/03 03:43:56;;;;;;;30.90;13.70;;;;;;;4.99;100.00;100476.25;4170001;28;21565;-75
2022/11/03 03:46:25;;;;;;;33.37;12.87;;;;;;;4.95;100.00;100480.88;4179798;28;20420;-75
2022/11/03 03:48:52;;;;;;;31.77;12.40;;;;;;;5.01;100.00;100476.97;4170636;28;20321;-73
2022/11/03 03:51:22;;;;;;;26.43;12.10;;;;;;;4.90;100.00;100472.47;4176526;28;21321;-75
2022/11/03 03:53:53;;;;;;;32.47;13.40;;;;;;;4.97;100.00;100478.16;4157796;28;20260;-74
2022/11/03 03:56:26;;;;;;;35.63;13.17;;;;;;;4.89;100.00;100481.28;4169397;28;20614;-75
2022/11/03 03:58:52;;;;;;;33.97;12.47;;;;;;;4.84;100.00;100478.16;4184283;28;20234;-74
2022/11/03 04:01:19;;;;;;;36.53;12.63;;;;;;;4.87;100.00;100477.94;4173728;28;22022;-76
2022/11/03 04:03:46;;;;;;;34.73;13.43;;;;;;;4.92;100.00;100488.19;4169821;28;20235;-77
2022/11/03 04:06:12;;;;;;;37.33;13.07;;;;;;;4.83;100.00;100481.75;4170074;28;20231;-73
2022/11/03 04:08:39;;;;;;;33.60;13.57;;;;;;;4.86;100.00;100478.88;4169464;28;20409;-74
2022/11/03 04:22:23;;;;;;;34.20;12.97;;;;;;;4.63;100.00;100483.13;4176117;28;20447;-74
2022/11/03 04:24:51;;;;;;;33.93;13.43;;;;;;;4.66;100.00;100485.56;4180694;28;20234;-72
2022/11/03 04:27:25;;;;;;;31.80;12.63;;;;;;;4.68;100.00;100483.63;4167621;28;20229;-72
2022/11/03 04:29:56;;;;;;;35.10;13.90;;;;;;;4.67;100.00;100481.13;4172934;28;20240;-76
2022/11/03 04:32:22;;;;;;;34.00;13.17;;;;;;;4.61;100.00;100488.50;4170695;28;22386;-72
2022/11/03 04:34:49;;;;;;;33.17;13.30;;;;;;;4.51;100.00;100487.44;4177476;28;20304;-75
2022/11/03 04:37:15;;;;;;;28.70;12.93;;;;;;;4.63;100.00;100494.50;4172133;28;20226;-73
2022/11/03 04:39:42;;;;;;;31.60;13.60;;;;;;;4.55;100.00;100499.47;4183273;28;22341;-73
2022/11/03 04:42:20;;;;;;;35.50;14.07;;;;;;;4.55;100.00;100499.47;4172956;28;20241;-73
2022/11/03 04:44:48;;;;;;;37.53;13.83;;;;;;;4.60;100.00;100499.16;4183368;28;20234;-72
2022/11/03 04:47:15;;;;;;;35.07;13.87;;;;;;;4.53;100.00;100497.88;4168626;28;21692;-72
2022/11/03 04:49:43;;;;;;;39.33;14.50;;;;;;;4.55;100.00;100493.34;4169322;28;20298;-73
2022/11/03 04:52:19;;;;;;;29.57;13.47;;;;;;;4.63;100.00;100502.41;4166730;28;20257;-72
2022/11/03 04:54:47;;;;;;;35.63;13.40;;;;;;;4.71;100.00;100499.25;4194784;28;20340;-72
2022/11/03 04:57:15;;;;;;;35.90;14.70;;;;;;;4.66;100.00;100504.00;4176452;28;20242;-73
2022/11/03 04:59:44;;;;;;;32.27;13.63;;;;;;;4.55;100.00;100493.34;4170204;28;20281;-74
2022/11/03 05:02:13;;;;;;;32.63;14.03;;;;;;;4.63;100.00;100486.59;4161981;28;20326;-75
2022/11/03 05:04:40;;;;;;;33.03;13.23;;;;;;;4.73;100.00;100493.84;4174603;28;20442;-73
2022/11/03 05:07:20;;;;;;;34.43;14.50;;;;;;;4.78;100.00;100497.88;4162582;28;20565;-72
2022/11/03 05:09:47;;;;;;;36.27;13.77;;;;;;;4.84;100.00;100507.16;4172497;28;20256;-73
2022/11/03 05:12:14;;;;;;;30.97;13.43;;;;;;;4.80;100.00;100503.03;4186943;28;20377;-74
2022/11/03 05:14:40;;;;;;;30.20;13.63;;;;;;;4.61;100.00;100504.31;4170039;28;20306;-76
2022/11/03 05:17:27;;;;;;;26.70;13.03;;;;;;;4.63;100.00;100504.19;4167663;28;21996;-72
2022/11/03 05:20:00;;;;;;;30.57;13.60;;;;;;;4.67;100.00;100504.84;4170938;28;20301;-71
2022/11/03 05:22:30;;;;;;;36.77;13.63;;;;;;;4.70;100.00;100507.25;4181412;28;20241;-76
2022/11/03 05:25:02;;;;;;;30.83;13.10;;;;;;;4.74;100.00;100509.59;4178603;28;20443;-76
2022/11/03 05:27:29;;;;;;;32.47;12.77;;;;;;;4.68;100.00;100509.16;4177330;28;21519;-75
2022/11/03 05:29:57;;;;;;;33.60;12.50;;;;;;;4.74;100.00;100519.28;4192317;28;20302;-76
2022/11/03 05:32:29;;;;;;;27.40;13.83;;;;;;;4.70;100.00;100509.91;4178014;28;20241;-72
2022/11/03 05:34:55;;;;;;;24.03;12.63;;;;;;;4.79;100.00;100504.81;4165514;28;20301;-73
2022/11/03 05:37:26;;;;;;;41.37;14.03;;;;;;;4.90;100.00;100509.38;4173056;28;20237;-73
2022/11/03 05:40:13;;;;;;;32.50;12.73;;;;;;;4.84;100.00;100509.78;4167825;28;20238;-74
2022/11/03 05:42:41;;;;;;;33.27;13.37;;;;;;;4.88;100.00;100502.53;4182039;28;23898;-72
2022/11/03 05:45:15;;;;;;;32.57;13.67;;;;;;;5.04;100.00;100508.41;4188794;28;20240;-73
2022/11/03 05:47:41;;;;;;;34.93;13.30;;;;;;;4.93;100.00;100501.22;4195692;28;20233;-74
2022/11/03 05:50:18;;;;;;;41.83;17.50;;;;;;;4.95;100.00;100507.25;4174364;28;20236;-74
2022/11/03 05:52:46;;;;;;;32.87;13.53;;;;;;;4.98;100.00;100512.31;4180205;28;20758;-77
2022/11/03 05:55:27;;;;;;;35.60;13.37;;;;;;;5.07;100.00;100511.66;4196780;28;20237;-72
2022/11/03 05:57:58;;;;;;;30.77;13.83;;;;;;;5.16;100.00;100517.25;4215605;28;22795;-74
2022/11/03 06:00:36;;;;;;;36.77;14.63;;;;;;;5.10;100.00;100509.75;4190185;28;20234;-75
2022/11/03 06:03:03;;;;;;;31.20;13.07;;;;;;;5.14;100.00;100513.88;4220067;28;20300;-73
2022/11/03 06:05:32;;;;;;;28.30;13.73;;;;;;;5.15;100.00;100516.41;4190871;28;20891;-75
2022/11/03 06:08:02;;;;;;;32.00;13.80;;;;;;;5.19;100.00;100519.66;4191510;28;20533;-72
2022/11/03 06:10:33;;;;;;;29.93;13.43;;;;;;;5.21;100.00;100520.41;4188833;28;20327;-70
2022/11/03 06:13:03;;;;;;;27.60;12.60;;;;;;;5.26;100.00;100526.19;4166726;28;20284;-75
2022/11/03 06:15:33;;;;;;;29.67;12.30;;;;;;;5.27;100.00;100527.91;4198728;28;20392;-72
2022/11/03 06:18:01;;;;;;;30.37;13.17;;;;;;;5.29;100.00;100528.59;4176152;28;20246;-75
2022/11/03 06:20:28;;;;;;;33.13;13.83;;;;;;;5.20;100.00;100534.56;4200866;28;23678;-70
2022/11/03 06:22:55;;;;;;;26.77;12.63;;;;;;;5.33;100.00;100542.44;4193003;28;20231;-73
2022/11/03 06:25:31;;;;;;;30.60;13.00;;;;;;;5.21;100.00;100533.59;4173624;28;20323;-70
2022/11/03 06:28:04;;;;;;;35.47;12.67;;;;;;;5.11;100.00;100533.41;4185530;28;25369;-71
2022/11/03 06:30:32;;;;;;;24.63;11.73;;;;;;;5.18;100.00;100533.81;4193410;28;21654;-70
2022/11/03 06:33:05;;;;;;;34.00;12.80;;;;;;;5.14;100.00;100538.44;4197544;28;20273;-72
2022/11/03 06:35:33;;;;;;;44.03;12.93;;;;;;;5.02;100.00;100534.88;4195417;28;20594;-71
2022/11/03 06:38:00;;;;;;;30.47;12.57;;;;;;;4.91;100.00;100542.69;4192684;28;20246;-74
2022/11/03 06:40:33;;;;;;;30.30;13.07;;;;;;;4.84;100.00;100544.91;4184621;28;21221;-72
2022/11/03 06:43:15;;;;;;;29.63;13.30;;;;;;;4.83;100.00;100542.38;4172582;28;20243;-69
2022/11/03 06:45:48;;;;;;;29.27;12.60;;;;;;;4.84;100.00;100536.97;4173315;28;20248;-73
2022/11/03 06:48:21;;;;;;;24.33;12.57;;;;;;;4.88;100.00;100540.28;4185606;28;20237;-66
2022/11/03 06:50:47;;;;;;;32.87;13.90;;;;;;;4.91;100.00;100547.13;4191007;28;20560;-71
2022/11/03 06:53:20;;;;;;;28.83;13.00;;;;;;;4.90;100.00;100551.56;4172179;28;20236;-75
2022/11/03 06:55:47;;;;;;;34.20;15.27;;;;;;;4.92;100.00;100552.31;4194332;28;20300;-72
2022/11/03 06:58:18;;;;;;;31.30;13.63;;;;;;;4.99;100.00;100558.00;4180772;28;20336;-72
2022/11/03 07:00:44;;;;;;;32.40;14.27;;;;;;;5.02;100.00;100548.06;4168469;28;20258;-72
2022/11/03 07:03:22;;;;;;;30.10;13.17;;;;;;;5.12;100.00;100544.78;4168866;28;20772;-70
2022/11/03 07:05:50;;;;;;;38.30;14.03;;;;;;;5.18;100.00;100541.72;4187694;28;20232;-71
2022/11/03 07:08:21;;;;;;;30.57;14.63;;;;;;;5.31;100.00;100544.34;4192358;28;20434;-72
2022/11/03 07:10:59;;;;;;;30.80;12.73;;;;;;;5.40;100.00;100543.69;4194413;28;21793;-69
2022/11/03 07:13:27;;;;;;;33.03;14.23;;;;;;;5.42;100.00;100550.53;4191122;28;20234;-69
2022/11/03 07:15:53;;;;;;;33.97;13.17;;;;;;;5.55;100.00;100547.00;4193172;28;20410;-71
2022/11/03 07:18:27;;;;;;;26.13;12.37;;;;;;;5.59;100.00;100548.50;4158329;28;22813;-71
2022/11/03 07:20:54;;;;;;;31.33;14.30;;;;;;;5.62;100.00;100540.34;4171160;28;20238;-73
2022/11/03 07:23:28;;;;;;;27.97;12.37;;;;;;;5.73;100.00;100545.69;4189222;28;22307;-74
2022/11/03 07:25:59;;;;;;;37.30;13.27;;;;;;;5.77;100.00;100539.25;4171017;28;20237;-72
2022/11/03 07:28:35;;;;;;;35.57;11.47;;;;;;;5.84;100.00;100539.66;4189007;28;21987;-71
2022/11/03 07:31:11;;;;;;;30.63;12.60;;;;;;;5.99;100.00;100545.63;4197427;28;20470;-75
2022/11/03 07:33:42;;;;;;;30.27;11.80;;;;;;;6.05;100.00;100539.91;4183199;28;20572;-74
2022/11/03 07:36:14;;;;;;;32.00;12.23;;;;;;;6.29;100.00;100543.34;4208903;28;20248;-74
2022/11/03 07:38:45;;;;;;;28.37;11.33;;;;;;;6.12;100.00;100530.56;4204622;28;20344;-76
2022/11/03 07:41:17;;;;;;;21.33;10.13;;;;;;;6.23;100.00;100537.69;4191373;28;21133;-73
2022/11/03 07:43:51;;;;;;;21.30;10.20;;;;;;;6.17;100.00;100536.34;4201251;28;20363;-75
2022/11/03 07:46:19;;;;;;;29.50;11.00;;;;;;;6.41;100.00;100538.09;4218322;28;21292;-76
2022/11/03 07:48:47;;;;;;;30.70;10.50;;;;;;;6.56;100.00;100542.25;4201920;28;21392;-73
2022/11/03 07:51:47;;;;;;;19.83;10.10;;;;;;;6.61;100.00;100541.91;4175726;28;20342;-73
2022/11/03 07:54:23;;;;;;;21.47;9.70;;;;;;;6.80;100.00;100531.59;4229846;28;20481;-72
2022/11/03 07:56:59;;;;;;;30.43;10.57;;;;;;;7.06;100.00;100537.50;4261118;28;22210;-75
2022/11/03 07:59:41;;;;;;;18.30;9.53;;;;;;;8.07;100.00;100548.88;4289497;28;20233;-75
2022/11/03 08:02:25;;;;;;;30.53;9.40;;;;;;;9.95;96.67;100553.09;4263271;28;20225;-73
2022/11/03 08:04:53;;;;;;;20.00;7.87;;;;;;;13.34;76.12;100572.78;4303772;28;20231;-73
2022/11/03 08:07:20;;;;;;;16.87;6.20;;;;;;;15.50;62.40;100591.38;4269483;28;20233;-74
2022/11/03 08:09:46;;;;;;;16.17;6.80;;;;;;;16.52;56.52;100594.00;4236282;28;20697;-43
2022/11/03 08:12:13;;;;;;;17.80;6.10;;;;;;;19.25;49.91;100604.63;4231145;28;20577;-53
2022/11/03 08:14:40;;;;;;;14.67;6.33;;;;;;;20.82;41.35;100623.47;4287063;28;20241;-72
2022/11/03 08:17:07;;;;;;;18.20;5.87;;;;;;;22.88;37.10;100626.47;4332432;28;21728;-73
2022/11/03 08:19:34;;;;;;;14.13;6.30;;;;;;;25.25;31.33;100633.72;4299742;28;21176;-74
2022/11/03 08:22:00;;;;;;;12.93;5.70;;;;;;;24.08;31.96;100622.53;4267046;28;20243;-71
2022/11/03 08:24:27;;;;;;;12.63;5.93;;;;;;;24.19;30.61;100617.13;4269122;28;21231;-71
2022/11/03 08:26:54;;;;;;;17.50;6.17;;;;;;;22.87;32.57;100611.22;4253858;28;20390;-72
2022/11/03 08:29:21;;;;;;;20.60;6.27;;;;;;;22.16;33.83;100598.78;4273956;28;20280;-72
2022/11/03 08:31:48;;;;;;;15.20;5.70;;;;;;;22.99;32.69;100620.31;4246012;28;20237;-73
2022/11/03 08:34:14;;;;;;;16.80;5.70;;;;;;;23.49;32.15;100620.28;4215113;28;20883;-72
2022/11/03 08:36:41;;;;;;;16.07;5.73;;;;;;;24.00;30.54;100615.53;4206609;28;20535;-73
2022/11/03 08:39:08;;;;;;;14.67;5.70;;;;;;;22.74;32.86;100610.28;4210180;28;22495;-74
2022/11/03 08:41:34;;;;;;;16.07;5.70;;;;;;;21.91;34.07;100603.06;4232517;28;20306;-73
2022/11/03 08:44:01;;;;;;;15.33;5.37;;;;;;;20.65;36.81;100585.19;4220407;28;21066;-73
2022/11/03 08:46:28;;;;;;;13.43;5.50;;;;;;;23.72;32.03;100607.91;4227975;28;23778;-72
2022/11/03 08:48:55;;;;;;;17.87;6.30;;;;;;;24.26;31.12;100614.31;4192377;28;20237;-71
2022/11/03 08:51:21;;;;;;;12.07;5.93;;;;;;;22.77;31.43;100614.44;4259069;28;20319;-72
2022/11/03 08:53:52;;;;;;;13.53;5.50;;;;;;;22.39;32.80;100603.69;4232423;28;20361;-74
2022/11/03 08:56:20;;;;;;;13.47;5.43;;;;;;;22.74;32.23;100604.88;4219782;28;20694;-71
2022/11/03 08:58:48;;;;;;;16.73;5.63;;;;;;;23.28;31.35;100607.13;4225470;28;20237;-71
2022/11/03 09:01:14;;;;;;;13.17;5.17;;;;;;;21.87;33.70;100601.84;4198330;28;23626;-71
2022/11/03 09:03:42;;;;;;;14.63;5.37;;;;;;;21.40;34.72;100594.91;4214425;28;20237;-72
2022/11/03 09:06:08;;;;;;;12.50;5.23;;;;;;;20.32;36.34;100582.44;4193177;28;20237;-64
2022/11/03 09:08:35;;;;;;;15.33;5.10;;;;;;;17.40;42.90;100572.88;4203738;28;20236;-72
2022/11/03 09:11:22;;;;;;;14.90;6.50;;;;;;;14.88;53.45;100556.34;4196427;28;20480;-72
2022/11/03 09:13:48;;;;;;;17.13;6.43;;;;;;;13.62;61.33;100543.16;4207668;28;20240;-72
2022/11/03 09:16:16;;;;;;;15.70;6.00;;;;;;;12.95;65.18;100543.00;4221112;28;20237;-71
2022/11/03 09:18:44;;;;;;;16.30;5.57;;;;;;;12.45;68.30;100533.78;4205540;28;20230;-70
2022/11/03 09:21:12;;;;;;;20.07;5.70;;;;;;;12.17;71.10;100535.72;4187011;28;21726;-70
2022/11/03 09:23:39;;;;;;;18.67;5.50;;;;;;;12.52;69.20;100534.84;4193438;28;20309;-71
2022/11/03 09:26:06;;;;;;;15.47;5.53;;;;;;;12.25;70.72;100523.28;4212233;28;20230;-71
2022/11/03 09:28:34;;;;;;;18.17;5.80;;;;;;;12.21;71.48;100519.25;4183035;28;20236;-68
2022/11/03 09:31:01;;;;;;;19.27;6.67;;;;;;;12.42;69.77;100523.44;4196187;28;20302;-74
2022/11/03 09:33:28;;;;;;;16.23;6.57;;;;;;;12.32;70.79;100517.34;4205419;28;26022;-74
2022/11/03 09:35:54;;;;;;;14.73;5.93;;;;;;;11.95;72.45;100519.19;4206466;28;21085;-71
2022/11/03 09:38:22;;;;;;;14.60;4.67;;;;;;;12.22;71.33;100507.59;4207818;28;20427;-73
2022/11/03 09:40:48;;;;;;;17.43;5.80;;;;;;;12.01;73.87;100512.38;4219230;28;20334;-71
2022/11/03 09:43:15;;;;;;;16.87;5.43;;;;;;;11.78;74.54;100506.66;4217909;28;22471;-71
2022/11/03 09:45:42;;;;;;;15.33;5.63;;;;;;;11.80;74.87;100508.19;4229375;28;20241;-71
2022/11/03 09:48:09;;;;;;;16.77;5.60;;;;;;;12.06;74.83;100512.78;4230609;28;20230;-45
2022/11/03 09:50:36;;;;;;;13.50;5.60;;;;;;;11.92;74.67;100503.50;4233508;28;20240;-59
2022/11/03 09:53:03;;;;;;;15.03;4.70;;;;;;;12.11;74.46;100504.34;4220479;28;20241;-73
2022/11/03 09:55:31;;;;;;;16.97;4.80;;;;;;;12.05;75.12;100503.09;4225642;28;20400;-56
2022/11/03 09:58:00;;;;;;;16.43;5.23;;;;;;;12.33;74.15;100500.34;4229511;28;20288;-75
2022/11/03 10:00:27;;;;;;;14.60;5.03;;;;;;;12.35;73.43;100498.34;4211732;28;20407;-72
2022/11/03 10:02:54;;;;;;;11.10;4.50;;;;;;;12.75;71.89;100495.13;4194479;28;20388;-75
2022/11/03 10:05:26;;;;;;;15.33;4.87;;;;;;;12.81;71.42;100496.34;4213066;28;20896;-72
2022/11/03 10:07:58;;;;;;;18.03;5.23;;;;;;;12.76;70.48;100487.94;4186773;28;21973;-75
2022/11/03 10:10:26;;;;;;;19.70;4.30;;;;;;;12.93;70.36;100488.91;4217378;28;20287;-74
2022/11/03 10:12:54;;;;;;;12.03;4.00;;;;;;;12.87;70.21;100490.34;4202403;28;21288;-74
2022/11/03 10:15:22;;;;;;;24.87;4.50;;;;;;;12.71;71.54;100483.06;4207010;28;20245;-73
2022/11/03 10:17:49;;;;;;;18.13;4.63;;;;;;;12.48;72.08;100482.78;4216513;28;20234;-74
2022/11/03 10:20:18;;;;;;;13.30;3.43;;;;;;;12.49;72.92;100476.44;4213492;28;20579;-73
2022/11/03 10:22:46;;;;;;;15.37;4.33;;;;;;;12.39;72.81;100471.19;4206177;28;20925;-72
2022/11/03 10:25:35;;;;;;;13.27;4.00;;;;;;;12.56;73.10;100472.16;4201728;28;21259;-75
2022/11/03 10:28:19;;;;;;;14.87;3.50;;;;;;;12.65;71.83;100471.19;4224557;28;20424;-74
2022/11/03 10:30:49;;;;;;;17.27;4.10;;;;;;;12.36;73.40;100468.00;4210635;28;20832;-74
2022/11/03 10:33:37;;;;;;;15.33;3.83;;;;;;;12.34;74.09;100464.63;4206143;28;20246;-73
2022/11/03 10:36:22;;;;;;;18.17;4.63;;;;;;;12.73;71.23;100470.41;4214310;28;20232;-75
2022/11/03 10:38:48;;;;;;;14.03;3.90;;;;;;;12.88;71.19;100471.50;4213569;28;20242;-73
2022/11/03 10:41:20;;;;;;;13.83;4.13;;;;;;;12.68;70.58;100467.38;4222926;28;20245;-73
2022/11/03 10:44:09;;;;;;;18.20;3.90;;;;;;;12.71;71.25;100464.38;4211216;28;20452;-72
2022/11/03 10:46:37;;;;;;;16.93;4.50;;;;;;;12.76;70.21;100463.91;4211083;28;21819;-75
2022/11/03 10:49:20;;;;;;;16.33;3.03;;;;;;;12.88;70.36;100449.31;4214664;28;20232;-72
2022/11/03 10:51:52;;;;;;;14.83;3.00;;;;;;;12.97;68.57;100459.03;4213072;28;23549;-74
2022/11/03 10:54:21;;;;;;;18.23;3.17;;;;;;;12.85;69.80;100450.47;4193526;28;20248;-73
2022/11/03 10:56:49;;;;;;;16.20;3.60;;;;;;;12.85;69.56;100454.94;4209524;28;20292;-71
2022/11/03 10:59:23;;;;;;;10.87;2.83;;;;;;;12.83;68.74;100448.94;4214505;28;20234;-73
2022/11/03 11:01:52;;;;;;;15.17;3.07;;;;;;;13.16;66.88;100452.59;4191374;28;20363;-73
2022/11/03 11:04:19;;;;;;;16.70;3.33;;;;;;;13.15;66.81;100444.72;4212668;28;22011;-73
2022/11/03 11:06:47;;;;;;;18.57;3.33;;;;;;;12.93;67.05;100441.66;4213854;28;20233;-74
2022/11/03 11:09:24;;;;;;;19.50;2.37;;;;;;;12.84;66.05;100442.59;4236332;28;20226;-72
2022/11/03 11:12:09;;;;;;;13.30;2.67;;;;;;;13.15;64.33;100442.06;4205593;28;20246;-75
2022/11/03 11:14:38;;;;;;;35.17;3.47;;;;;;;13.09;63.87;100435.53;4207528;28;21266;-72
2022/11/03 11:17:05;;;;;;;13.00;2.67;;;;;;;12.94;64.65;100423.78;4229405;28;20238;-72
2022/11/03 11:20:22;;;;;;;12.10;2.77;;;;;;;12.92;64.53;100423.94;4245322;28;20239;-75
2022/11/03 11:22:49;;;;;;;11.13;2.53;;;;;;;12.98;63.77;100423.31;4250230;28;20242;-74
2022/11/03 11:25:19;;;;;;;16.13;2.83;;;;;;;12.96;64.75;100417.28;4218169;28;20271;-73
2022/11/03 11:27:45;;;;;;;15.13;3.27;;;;;;;12.95;64.46;100412.13;4226701;28;20428;-73
2022/11/03 11:30:18;;;;;;;10.57;2.83;;;;;;;13.04;63.47;100411.97;4208238;28;22052;-75
2022/11/03 11:32:45;;;;;;;12.20;2.40;;;;;;;12.98;61.43;100412.63;4230015;28;20449;-74
2022/11/03 11:35:14;;;;;;;8.23;2.70;;;;;;;13.23;61.69;100407.38;4208615;28;20234;-73
2022/11/03 11:37:41;;;;;;;11.83;2.57;;;;;;;13.29;62.17;100406.72;4218516;28;20284;-73
2022/11/03 11:40:12;;;;;;;11.83;2.50;;;;;;;13.19;62.42;100408.69;4205127;28;21044;-75
2022/11/03 11:43:05;;;;;;;8.73;3.27;;;;;;;13.03;62.50;100396.94;4220474;28;21846;-72
2022/11/03 11:46:10;;;;;;;10.83;2.70;;;;;;;13.29;62.13;100398.72;4230216;28;23575;-73
2022/11/03 11:48:38;;;;;;;10.63;2.37;;;;;;;13.51;58.19;100403.44;4226768;28;20229;-74
2022/11/03 11:51:10;;;;;;;11.83;3.50;;;;;;;13.26;59.34;100394.50;4211298;28;25783;-77